LEPPLEBB

Guest
Details From LEPP - Pamplona
To LEBB - Bilbao
Flight Number -
Tags Generated
Created
Modified
Stats Distance 65 nm / 120 km
Max Altitude 0 ft / 0 m
Waypoints 2
Social Downloads 2
Likes 0
Share VATSIM

Download

Looking for another format? Having issues loading an existing format? Contact us
Advertisement - Login to hide

Notes

Generated

Route

LEPP LEBB

ID Type Via Altitude Latitude Longitude Leg Dist Tot Dist Heading (true) Name
O LEPP APT - 0 ft / 0 m 42.77954˚ -1.65325˚ - 0 nm - -
O LEBB APT - 0 ft / 0 m 43.30335˚ -2.93703˚ 64 nm 64 nm 300° / 299° -

Altitude Profile

Advertisement - Login to hide

LEPP

Details ICAO LEPP (PNA)
Name Pamplona
Region Spain
Timezone Europe/Madrid (UTC+1.0)
Stats Elevation 1,503 ft / 458 m (AMSL)
Location 42.770831° -1.646876°
Runways 2
Magnetic Variation 0.228° W

METAR

LEPP 130530Z VRB02KT CAVOK M01/M01 Q1022

Decode

TAF

TAF LEPP 130200Z 1303/1403 VRB04KT 9999 FEW050 TX10/1315Z TNM01/1305Z PROB40 TEMPO 1309/1321 16010KT PROB40 TEMPO 1318/1403 RA TEMPO 1400/1403 BKN014

Decode

Departure Runways

ID Width Length Bearing (true) Bearing (mag) Surface Threshold Offset Overrun Length
15 148 ft / 45 m 7,192 ft / 2,192 m 151.64° 151.87° Asphalt 0 ft / 0 m 0 ft / 0 m
16 148 ft / 45 m 7,245 ft / 2,208 m 151.86° 152.09° Asphalt 0 ft / 0 m 0 ft / 0 m
33 148 ft / 45 m 7,192 ft / 2,192 m 331.65° 331.88° Asphalt 984 ft / 300 m 656 ft / 200 m
34 148 ft / 45 m 7,245 ft / 2,208 m 331.86° 332.09° Asphalt 984 ft / 300 m 0 ft / 0 m

LEBB

Details ICAO LEBB (BIO)
Name Bilbao
Region Spain
Timezone Europe/Madrid (UTC+1.0)
Stats Elevation 137 ft / 42 m (AMSL)
Location 43.301692° -2.917664°
Runways 2
Magnetic Variation 0.630° W

METAR

LEBB 130530Z 00000KT 9999 BKN034 10/04 Q1020 NOSIG

Decode

TAF

TAF LEBB 130500Z 1306/1406 20009KT 9999 SCT040 TX15/1314Z TN08/1306Z TEMPO 1306/1321 20015G25KT PROB40 TEMPO 1312/1406 RA PROB40 TEMPO 1321/1406 3000 RA BKN014

Decode

Destination Runways

ID Width Length Bearing (true) Bearing (mag) Surface Threshold Offset Overrun Length
10 148 ft / 45 m 6,569 ft / 2,002 m 96.66° 97.29° Asphalt 20 ft / 6 m 184 ft / 56 m
12 148 ft / 45 m 8,539 ft / 2,603 m 116.73° 117.36° Asphalt 20 ft / 6 m 197 ft / 60 m
28 148 ft / 45 m 6,569 ft / 2,002 m 276.68° 277.31° Asphalt 23 ft / 7 m 0 ft / 0 m
30 148 ft / 45 m 8,539 ft / 2,603 m 296.75° 297.38° Asphalt 1,509 ft / 460 m 171 ft / 52 m

Approach Navaids

Runway Type Ident Frequency Range Bearing (true) Bearing (mag) Slope Elevation
12 Localiser IBO 111.55 MHz 20 nm / 37 km 116.74° 117.37° - 113 ft / 34 m (AMSL)
12 Glidescope IBO 111.55 MHz 10 nm / 19 km 116.74° 117.37° 3.10° 133 ft / 41 m (AMSL)
12 DME IBO 111.55 MHz 13 nm / 24 km - - - 133 ft / 41 m (AMSL)
30 Localiser IBL 110.30 MHz 20 nm / 37 km 296.74° 297.37° - 106 ft / 32 m (AMSL)
30 Glidescope IBL 110.30 MHz 10 nm / 19 km 296.74° 297.37° 3.40° 133 ft / 41 m (AMSL)
30 DME IBL 110.30 MHz 13 nm / 24 km - - - 132 ft / 40 m (AMSL)

Popular Alternatives